sensor_id;sensor_type;location;lat;lon;timestamp;P1;durP1;ratioP1;P2;durP2;ratioP2
36855;SDS011;22788;51.434;6.786;2023-02-01T00:02:13;12.67;;;5.67;;
36855;SDS011;22788;51.434;6.786;2023-02-01T00:04:39;9.97;;;5.10;;
36855;SDS011;22788;51.434;6.786;2023-02-01T00:07:05;9.93;;;5.13;;
36855;SDS011;22788;51.434;6.786;2023-02-01T00:09:32;13.07;;;5.40;;
36855;SDS011;22788;51.434;6.786;2023-02-01T00:11:59;12.97;;;5.63;;
36855;SDS011;22788;51.434;6.786;2023-02-01T00:14:25;17.37;;;6.70;;
36855;SDS011;22788;51.434;6.786;2023-02-01T00:16:51;12.43;;;6.17;;
36855;SDS011;22788;51.434;6.786;2023-02-01T00:19:17;11.43;;;4.70;;
36855;SDS011;22788;51.434;6.786;2023-02-01T00:21:43;15.77;;;5.57;;
36855;SDS011;22788;51.434;6.786;2023-02-01T00:24:09;14.13;;;5.23;;
36855;SDS011;22788;51.434;6.786;2023-02-01T00:26:37;8.37;;;4.73;;
36855;SDS011;22788;51.434;6.786;2023-02-01T00:29:06;11.37;;;5.20;;
36855;SDS011;22788;51.434;6.786;2023-02-01T00:31:36;14.47;;;6.20;;
36855;SDS011;22788;51.434;6.786;2023-02-01T00:34:02;10.53;;;5.43;;
36855;SDS011;22788;51.434;6.786;2023-02-01T00:36:28;9.97;;;5.17;;
36855;SDS011;22788;51.434;6.786;2023-02-01T00:38:54;9.40;;;4.97;;
36855;SDS011;22788;51.434;6.786;2023-02-01T00:41:21;11.80;;;5.03;;
36855;SDS011;22788;51.434;6.786;2023-02-01T00:43:47;9.70;;;4.90;;
36855;SDS011;22788;51.434;6.786;2023-02-01T00:46:16;13.10;;;4.70;;
36855;SDS011;22788;51.434;6.786;2023-02-01T00:48:43;11.43;;;4.33;;
36855;SDS011;22788;51.434;6.786;2023-02-01T00:51:10;13.73;;;5.10;;
36855;SDS011;22788;51.434;6.786;2023-02-01T00:53:37;12.40;;;5.20;;
36855;SDS011;22788;51.434;6.786;2023-02-01T00:56:04;17.57;;;5.33;;
36855;SDS011;22788;51.434;6.786;2023-02-01T00:58:31;8.87;;;5.03;;
36855;SDS011;22788;51.434;6.786;2023-02-01T01:01:00;14.63;;;5.37;;
36855;SDS011;22788;51.434;6.786;2023-02-01T01:03:29;10.77;;;4.47;;
36855;SDS011;22788;51.434;6.786;2023-02-01T01:05:56;11.77;;;5.70;;
36855;SDS011;22788;51.434;6.786;2023-02-01T01:08:22;11.17;;;6.07;;
36855;SDS011;22788;51.434;6.786;2023-02-01T01:10:48;16.33;;;6.67;;
36855;SDS011;22788;51.434;6.786;2023-02-01T01:13:15;14.77;;;6.70;;
36855;SDS011;22788;51.434;6.786;2023-02-01T01:15:41;21.00;;;6.57;;
36855;SDS011;22788;51.434;6.786;2023-02-01T01:18:07;15.60;;;6.77;;
36855;SDS011;22788;51.434;6.786;2023-02-01T01:20:36;14.77;;;6.77;;
36855;SDS011;22788;51.434;6.786;2023-02-01T01:23:03;14.87;;;6.60;;
36855;SDS011;22788;51.434;6.786;2023-02-01T01:25:29;12.50;;;5.73;;
36855;SDS011;22788;51.434;6.786;2023-02-01T01:27:56;12.23;;;5.63;;
36855;SDS011;22788;51.434;6.786;2023-02-01T01:30:22;8.50;;;4.80;;
36855;SDS011;22788;51.434;6.786;2023-02-01T01:32:49;13.47;;;5.93;;
36855;SDS011;22788;51.434;6.786;2023-02-01T01:35:18;9.70;;;5.70;;
36855;SDS011;22788;51.434;6.786;2023-02-01T01:37:46;13.80;;;5.20;;
36855;SDS011;22788;51.434;6.786;2023-02-01T01:40:14;15.40;;;6.33;;
36855;SDS011;22788;51.434;6.786;2023-02-01T01:42:43;8.90;;;5.10;;
36855;SDS011;22788;51.434;6.786;2023-02-01T01:45:18;11.10;;;5.10;;
36855;SDS011;22788;51.434;6.786;2023-02-01T01:47:50;14.00;;;6.20;;
36855;SDS011;22788;51.434;6.786;2023-02-01T01:50:24;13.20;;;6.13;;
36855;SDS011;22788;51.434;6.786;2023-02-01T01:52:58;13.77;;;5.97;;
36855;SDS011;22788;51.434;6.786;2023-02-01T01:55:30;13.30;;;5.30;;
36855;SDS011;22788;51.434;6.786;2023-02-01T01:58:01;13.37;;;5.70;;
36855;SDS011;22788;51.434;6.786;2023-02-01T02:00:30;10.37;;;4.97;;
36855;SDS011;22788;51.434;6.786;2023-02-01T02:02:58;17.13;;;4.53;;
36855;SDS011;22788;51.434;6.786;2023-02-01T02:05:29;19.90;;;5.30;;
36855;SDS011;22788;51.434;6.786;2023-02-01T02:07:59;11.93;;;4.80;;
36855;SDS011;22788;51.434;6.786;2023-02-01T02:10:28;12.87;;;4.57;;
36855;SDS011;22788;51.434;6.786;2023-02-01T02:12:56;16.47;;;5.50;;
36855;SDS011;22788;51.434;6.786;2023-02-01T02:15:23;8.37;;;4.63;;
36855;SDS011;22788;51.434;6.786;2023-02-01T02:17:53;14.77;;;5.17;;
36855;SDS011;22788;51.434;6.786;2023-02-01T02:20:49;11.40;;;4.80;;
36855;SDS011;22788;51.434;6.786;2023-02-01T02:32:41;11.10;;;4.17;;
36855;SDS011;22788;51.434;6.786;2023-02-01T02:35:26;13.20;;;4.10;;
36855;SDS011;22788;51.434;6.786;2023-02-01T02:37:59;17.03;;;4.60;;
36855;SDS011;22788;51.434;6.786;2023-02-01T02:40:32;9.57;;;5.00;;
36855;SDS011;22788;51.434;6.786;2023-02-01T02:43:04;10.50;;;4.60;;
36855;SDS011;22788;51.434;6.786;2023-02-01T02:45:37;7.07;;;3.80;;
36855;SDS011;22788;51.434;6.786;2023-02-01T02:48:10;12.23;;;4.80;;
36855;SDS011;22788;51.434;6.786;2023-02-01T02:50:42;10.57;;;3.80;;
36855;SDS011;22788;51.434;6.786;2023-02-01T02:53:13;16.37;;;4.10;;
36855;SDS011;22788;51.434;6.786;2023-02-01T02:55:43;7.20;;;3.97;;
36855;SDS011;22788;51.434;6.786;2023-02-01T02:58:10;13.13;;;3.63;;
36855;SDS011;22788;51.434;6.786;2023-02-01T03:00:38;7.60;;;4.00;;
36855;SDS011;22788;51.434;6.786;2023-02-01T03:03:05;12.97;;;3.97;;
36855;SDS011;22788;51.434;6.786;2023-02-01T03:05:32;10.30;;;4.03;;
36855;SDS011;22788;51.434;6.786;2023-02-01T03:08:04;12.20;;;4.80;;
36855;SDS011;22788;51.434;6.786;2023-02-01T03:10:37;12.43;;;3.80;;
36855;SDS011;22788;51.434;6.786;2023-02-01T03:13:11;7.03;;;3.40;;
36855;SDS011;22788;51.434;6.786;2023-02-01T03:15:42;11.43;;;3.93;;
36855;SDS011;22788;51.434;6.786;2023-02-01T03:18:13;10.83;;;4.57;;
36855;SDS011;22788;51.434;6.786;2023-02-01T03:20:44;11.57;;;3.90;;
36855;SDS011;22788;51.434;6.786;2023-02-01T03:23:16;15.60;;;5.03;;
36855;SDS011;22788;51.434;6.786;2023-02-01T03:25:46;10.13;;;3.70;;
36855;SDS011;22788;51.434;6.786;2023-02-01T03:28:15;11.53;;;3.70;;
36855;SDS011;22788;51.434;6.786;2023-02-01T03:30:45;14.37;;;4.20;;
36855;SDS011;22788;51.434;6.786;2023-02-01T03:33:12;9.23;;;3.60;;
36855;SDS011;22788;51.434;6.786;2023-02-01T03:35:45;8.63;;;3.13;;
36855;SDS011;22788;51.434;6.786;2023-02-01T03:38:19;10.37;;;4.00;;
36855;SDS011;22788;51.434;6.786;2023-02-01T03:40:48;9.23;;;3.30;;
36855;SDS011;22788;51.434;6.786;2023-02-01T03:43:18;10.93;;;4.57;;
36855;SDS011;22788;51.434;6.786;2023-02-01T03:45:48;12.30;;;5.17;;
36855;SDS011;22788;51.434;6.786;2023-02-01T03:48:18;14.33;;;3.80;;
36855;SDS011;22788;51.434;6.786;2023-02-01T03:50:48;18.60;;;4.63;;
36855;SDS011;22788;51.434;6.786;2023-02-01T03:53:20;12.93;;;5.17;;
36855;SDS011;22788;51.434;6.786;2023-02-01T03:55:49;12.60;;;5.10;;
36855;SDS011;22788;51.434;6.786;2023-02-01T03:58:18;14.10;;;4.00;;
36855;SDS011;22788;51.434;6.786;2023-02-01T04:00:46;19.60;;;4.80;;
36855;SDS011;22788;51.434;6.786;2023-02-01T04:03:16;13.50;;;4.57;;
36855;SDS011;22788;51.434;6.786;2023-02-01T04:05:42;12.97;;;4.07;;
36855;SDS011;22788;51.434;6.786;2023-02-01T04:08:08;17.10;;;5.70;;
36855;SDS011;22788;51.434;6.786;2023-02-01T04:10:36;13.63;;;4.67;;
36855;SDS011;22788;51.434;6.786;2023-02-01T04:13:02;14.20;;;4.20;;
36855;SDS011;22788;51.434;6.786;2023-02-01T04:15:28;17.27;;;4.10;;
36855;SDS011;22788;51.434;6.786;2023-02-01T04:17:54;15.07;;;4.30;;
36855;SDS011;22788;51.434;6.786;2023-02-01T04:20:20;13.53;;;6.10;;
36855;SDS011;22788;51.434;6.786;2023-02-01T04:22:46;12.70;;;4.60;;
36855;SDS011;22788;51.434;6.786;2023-02-01T04:25:12;15.33;;;5.47;;
36855;SDS011;22788;51.434;6.786;2023-02-01T04:27:40;13.30;;;5.10;;
36855;SDS011;22788;51.434;6.786;2023-02-01T04:30:06;14.03;;;4.77;;
36855;SDS011;22788;51.434;6.786;2023-02-01T04:32:33;16.03;;;4.70;;
36855;SDS011;22788;51.434;6.786;2023-02-01T04:34:59;15.47;;;5.70;;
36855;SDS011;22788;51.434;6.786;2023-02-01T04:37:25;14.23;;;4.83;;
36855;SDS011;22788;51.434;6.786;2023-02-01T04:39:51;10.37;;;4.67;;
36855;SDS011;22788;51.434;6.786;2023-02-01T04:42:17;17.13;;;5.40;;
36855;SDS011;22788;51.434;6.786;2023-02-01T04:44:45;15.97;;;5.37;;
36855;SDS011;22788;51.434;6.786;2023-02-01T04:47:11;16.57;;;5.73;;
36855;SDS011;22788;51.434;6.786;2023-02-01T04:49:37;19.03;;;5.27;;
36855;SDS011;22788;51.434;6.786;2023-02-01T04:52:03;21.73;;;5.43;;
36855;SDS011;22788;51.434;6.786;2023-02-01T04:54:29;11.90;;;4.57;;
36855;SDS011;22788;51.434;6.786;2023-02-01T04:56:55;15.23;;;4.90;;
36855;SDS011;22788;51.434;6.786;2023-02-01T04:59:21;19.37;;;5.27;;
36855;SDS011;22788;51.434;6.786;2023-02-01T05:01:49;14.30;;;5.23;;
36855;SDS011;22788;51.434;6.786;2023-02-01T05:04:15;20.30;;;5.67;;
36855;SDS011;22788;51.434;6.786;2023-02-01T05:06:41;16.97;;;5.10;;
36855;SDS011;22788;51.434;6.786;2023-02-01T05:09:07;15.50;;;4.63;;
36855;SDS011;22788;51.434;6.786;2023-02-01T05:11:33;23.13;;;4.97;;
36855;SDS011;22788;51.434;6.786;2023-02-01T05:13:59;16.20;;;4.53;;
36855;SDS011;22788;51.434;6.786;2023-02-01T05:16:26;11.40;;;4.13;;
36855;SDS011;22788;51.434;6.786;2023-02-01T05:18:54;13.30;;;4.27;;
36855;SDS011;22788;51.434;6.786;2023-02-01T05:21:20;22.47;;;4.60;;
36855;SDS011;22788;51.434;6.786;2023-02-01T05:23:46;18.93;;;4.67;;
36855;SDS011;22788;51.434;6.786;2023-02-01T05:26:12;9.13;;;4.33;;
36855;SDS011;22788;51.434;6.786;2023-02-01T05:28:38;17.03;;;4.20;;
36855;SDS011;22788;51.434;6.786;2023-02-01T05:31:08;13.17;;;4.13;;
36855;SDS011;22788;51.434;6.786;2023-02-01T05:33:35;10.40;;;3.50;;
36855;SDS011;22788;51.434;6.786;2023-02-01T05:36:02;15.30;;;4.60;;
36855;SDS011;22788;51.434;6.786;2023-02-01T05:38:29;14.77;;;4.23;;
36855;SDS011;22788;51.434;6.786;2023-02-01T05:40:55;11.13;;;3.20;;
36855;SDS011;22788;51.434;6.786;2023-02-01T05:43:21;13.93;;;4.13;;
36855;SDS011;22788;51.434;6.786;2023-02-01T05:45:48;14.43;;;4.43;;
36855;SDS011;22788;51.434;6.786;2023-02-01T05:48:14;9.00;;;3.67;;
36855;SDS011;22788;51.434;6.786;2023-02-01T05:50:40;12.17;;;3.87;;
36855;SDS011;22788;51.434;6.786;2023-02-01T05:53:07;9.73;;;4.53;;
36855;SDS011;22788;51.434;6.786;2023-02-01T05:55:33;16.50;;;4.43;;
36855;SDS011;22788;51.434;6.786;2023-02-01T05:57:59;12.13;;;4.17;;
36855;SDS011;22788;51.434;6.786;2023-02-01T06:00:25;15.00;;;4.33;;
36855;SDS011;22788;51.434;6.786;2023-02-01T06:02:51;18.87;;;4.90;;
36855;SDS011;22788;51.434;6.786;2023-02-01T06:05:17;15.47;;;4.10;;
36855;SDS011;22788;51.434;6.786;2023-02-01T06:07:43;19.20;;;4.57;;
36855;SDS011;22788;51.434;6.786;2023-02-01T06:10:11;12.27;;;4.37;;
36855;SDS011;22788;51.434;6.786;2023-02-01T06:12:37;18.53;;;4.80;;
36855;SDS011;22788;51.434;6.786;2023-02-01T06:15:04;10.57;;;3.83;;
36855;SDS011;22788;51.434;6.786;2023-02-01T06:17:31;12.10;;;3.67;;
36855;SDS011;22788;51.434;6.786;2023-02-01T06:19:57;12.77;;;4.53;;
36855;SDS011;22788;51.434;6.786;2023-02-01T06:22:23;16.07;;;3.50;;
36855;SDS011;22788;51.434;6.786;2023-02-01T06:24:49;12.67;;;4.40;;
36855;SDS011;22788;51.434;6.786;2023-02-01T06:27:17;16.23;;;4.40;;
36855;SDS011;22788;51.434;6.786;2023-02-01T06:29:43;9.90;;;3.70;;
36855;SDS011;22788;51.434;6.786;2023-02-01T06:32:09;17.37;;;3.93;;
36855;SDS011;22788;51.434;6.786;2023-02-01T06:34:35;15.00;;;4.43;;
36855;SDS011;22788;51.434;6.786;2023-02-01T06:37:02;15.20;;;4.23;;
36855;SDS011;22788;51.434;6.786;2023-02-01T06:39:28;13.73;;;4.03;;
36855;SDS011;22788;51.434;6.786;2023-02-01T06:41:54;14.17;;;4.40;;
36855;SDS011;22788;51.434;6.786;2023-02-01T06:44:21;14.77;;;4.23;;
36855;SDS011;22788;51.434;6.786;2023-02-01T06:46:47;16.43;;;4.50;;
36855;SDS011;22788;51.434;6.786;2023-02-01T06:49:13;18.37;;;5.60;;
36855;SDS011;22788;51.434;6.786;2023-02-01T06:51:39;15.17;;;4.33;;
36855;SDS011;22788;51.434;6.786;2023-02-01T06:54:05;16.20;;;4.57;;
36855;SDS011;22788;51.434;6.786;2023-02-01T06:56:31;15.80;;;4.20;;
36855;SDS011;22788;51.434;6.786;2023-02-01T06:58:57;17.57;;;5.53;;
36855;SDS011;22788;51.434;6.786;2023-02-01T07:01:25;11.60;;;4.03;;
36855;SDS011;22788;51.434;6.786;2023-02-01T07:03:51;23.37;;;4.97;;
36855;SDS011;22788;51.434;6.786;2023-02-01T07:06:17;19.57;;;4.70;;
36855;SDS011;22788;51.434;6.786;2023-02-01T07:08:44;15.00;;;4.67;;
36855;SDS011;22788;51.434;6.786;2023-02-01T07:11:10;14.80;;;4.30;;
36855;SDS011;22788;51.434;6.786;2023-02-01T07:13:38;16.97;;;4.57;;
36855;SDS011;22788;51.434;6.786;2023-02-01T07:16:05;15.53;;;4.90;;
36855;SDS011;22788;51.434;6.786;2023-02-01T07:18:34;21.43;;;6.60;;
36855;SDS011;22788;51.434;6.786;2023-02-01T07:21:00;22.00;;;6.67;;
36855;SDS011;22788;51.434;6.786;2023-02-01T07:23:26;24.83;;;7.33;;
36855;SDS011;22788;51.434;6.786;2023-02-01T07:25:53;31.93;;;9.27;;
36855;SDS011;22788;51.434;6.786;2023-02-01T07:28:20;28.33;;;8.53;;
36855;SDS011;22788;51.434;6.786;2023-02-01T07:30:46;19.60;;;6.97;;
36855;SDS011;22788;51.434;6.786;2023-02-01T07:33:12;23.63;;;6.43;;
36855;SDS011;22788;51.434;6.786;2023-02-01T07:35:39;19.43;;;6.67;;
36855;SDS011;22788;51.434;6.786;2023-02-01T07:38:05;18.90;;;5.90;;
36855;SDS011;22788;51.434;6.786;2023-02-01T07:40:31;14.30;;;4.93;;
36855;SDS011;22788;51.434;6.786;2023-02-01T07:42:57;22.63;;;7.57;;
36855;SDS011;22788;51.434;6.786;2023-02-01T07:45:23;16.40;;;4.53;;
36855;SDS011;22788;51.434;6.786;2023-02-01T07:47:51;18.27;;;5.70;;
36855;SDS011;22788;51.434;6.786;2023-02-01T07:50:17;21.77;;;5.30;;
36855;SDS011;22788;51.434;6.786;2023-02-01T07:52:44;21.23;;;6.77;;
36855;SDS011;22788;51.434;6.786;2023-02-01T07:55:10;20.97;;;5.13;;
36855;SDS011;22788;51.434;6.786;2023-02-01T07:57:36;17.50;;;5.23;;
36855;SDS011;22788;51.434;6.786;2023-02-01T08:00:03;25.73;;;6.63;;
36855;SDS011;22788;51.434;6.786;2023-02-01T08:02:30;17.27;;;4.97;;
36855;SDS011;22788;51.434;6.786;2023-02-01T08:04:56;17.20;;;4.90;;
36855;SDS011;22788;51.434;6.786;2023-02-01T08:07:22;19.83;;;6.17;;
36855;SDS011;22788;51.434;6.786;2023-02-01T08:09:50;18.83;;;5.63;;
36855;SDS011;22788;51.434;6.786;2023-02-01T08:12:16;13.83;;;4.27;;
36855;SDS011;22788;51.434;6.786;2023-02-01T08:14:42;18.67;;;5.17;;
36855;SDS011;22788;51.434;6.786;2023-02-01T08:17:08;17.60;;;4.67;;
36855;SDS011;22788;51.434;6.786;2023-02-01T08:19:34;18.13;;;5.90;;
36855;SDS011;22788;51.434;6.786;2023-02-01T08:22:00;16.00;;;5.67;;
36855;SDS011;22788;51.434;6.786;2023-02-01T08:24:26;22.93;;;5.30;;
36855;SDS011;22788;51.434;6.786;2023-02-01T08:26:53;22.47;;;5.83;;
36855;SDS011;22788;51.434;6.786;2023-02-01T08:29:19;22.67;;;5.70;;
36855;SDS011;22788;51.434;6.786;2023-02-01T08:31:45;16.47;;;4.67;;
36855;SDS011;22788;51.434;6.786;2023-02-01T08:34:11;18.77;;;5.30;;
36855;SDS011;22788;51.434;6.786;2023-02-01T08:36:37;14.13;;;5.53;;
36855;SDS011;22788;51.434;6.786;2023-02-01T08:39:03;14.30;;;5.27;;
36855;SDS011;22788;51.434;6.786;2023-02-01T08:41:29;16.63;;;5.10;;
36855;SDS011;22788;51.434;6.786;2023-02-01T08:43:57;17.57;;;5.17;;
36855;SDS011;22788;51.434;6.786;2023-02-01T08:46:23;19.50;;;5.43;;
36855;SDS011;22788;51.434;6.786;2023-02-01T08:48:49;22.77;;;5.20;;
36855;SDS011;22788;51.434;6.786;2023-02-01T08:51:16;18.33;;;4.90;;
36855;SDS011;22788;51.434;6.786;2023-02-01T08:53:43;17.20;;;5.17;;
36855;SDS011;22788;51.434;6.786;2023-02-01T08:56:09;12.97;;;4.63;;
36855;SDS011;22788;51.434;6.786;2023-02-01T08:58:36;18.13;;;5.20;;
36855;SDS011;22788;51.434;6.786;2023-02-01T09:01:04;19.47;;;4.80;;
36855;SDS011;22788;51.434;6.786;2023-02-01T09:03:31;15.47;;;4.87;;
36855;SDS011;22788;51.434;6.786;2023-02-01T09:06:01;21.53;;;6.47;;
36855;SDS011;22788;51.434;6.786;2023-02-01T09:08:27;15.83;;;5.13;;
36855;SDS011;22788;51.434;6.786;2023-02-01T09:10:57;12.97;;;4.27;;
36855;SDS011;22788;51.434;6.786;2023-02-01T09:13:24;12.67;;;4.13;;
36855;SDS011;22788;51.434;6.786;2023-02-01T09:15:50;14.13;;;4.60;;
36855;SDS011;22788;51.434;6.786;2023-02-01T09:18:18;16.83;;;4.87;;
36855;SDS011;22788;51.434;6.786;2023-02-01T09:20:44;13.70;;;4.37;;
36855;SDS011;22788;51.434;6.786;2023-02-01T09:23:10;17.60;;;4.53;;
36855;SDS011;22788;51.434;6.786;2023-02-01T09:25:36;13.73;;;4.70;;
36855;SDS011;22788;51.434;6.786;2023-02-01T09:28:02;23.33;;;4.53;;
36855;SDS011;22788;51.434;6.786;2023-02-01T09:30:28;14.43;;;4.43;;
36855;SDS011;22788;51.434;6.786;2023-02-01T09:32:55;17.53;;;5.27;;
36855;SDS011;22788;51.434;6.786;2023-02-01T09:35:22;19.23;;;5.63;;
36855;SDS011;22788;51.434;6.786;2023-02-01T09:37:48;19.20;;;4.63;;
36855;SDS011;22788;51.434;6.786;2023-02-01T09:40:14;19.53;;;4.57;;
36855;SDS011;22788;51.434;6.786;2023-02-01T09:45:29;13.87;;;4.90;;
36855;SDS011;22788;51.434;6.786;2023-02-01T09:48:05;20.87;;;6.37;;
36855;SDS011;22788;51.434;6.786;2023-02-01T09:50:41;16.77;;;5.37;;
36855;SDS011;22788;51.434;6.786;2023-02-01T09:53:12;16.90;;;4.60;;
36855;SDS011;22788;51.434;6.786;2023-02-01T09:55:45;11.43;;;4.53;;
36855;SDS011;22788;51.434;6.786;2023-02-01T09:58:13;16.17;;;5.50;;
36855;SDS011;22788;51.434;6.786;2023-02-01T10:00:43;17.17;;;5.03;;
36855;SDS011;22788;51.434;6.786;2023-02-01T10:03:15;15.97;;;4.50;;
36855;SDS011;22788;51.434;6.786;2023-02-01T10:05:47;17.63;;;5.13;;
36855;SDS011;22788;51.434;6.786;2023-02-01T10:08:33;10.20;;;4.10;;
36855;SDS011;22788;51.434;6.786;2023-02-01T10:11:13;13.03;;;4.90;;
36855;SDS011;22788;51.434;6.786;2023-02-01T10:13:54;15.30;;;5.20;;
36855;SDS011;22788;51.434;6.786;2023-02-01T10:16:28;18.67;;;5.10;;
36855;SDS011;22788;51.434;6.786;2023-02-01T10:19:14;18.77;;;5.07;;
36855;SDS011;22788;51.434;6.786;2023-02-01T10:21:57;21.53;;;6.07;;
36855;SDS011;22788;51.434;6.786;2023-02-01T10:27:17;16.33;;;6.37;;
36855;SDS011;22788;51.434;6.786;2023-02-01T10:29:47;16.10;;;4.67;;
36855;SDS011;22788;51.434;6.786;2023-02-01T10:32:18;21.60;;;5.20;;
36855;SDS011;22788;51.434;6.786;2023-02-01T10:34:48;14.37;;;5.27;;
36855;SDS011;22788;51.434;6.786;2023-02-01T10:37:25;15.53;;;5.60;;
36855;SDS011;22788;51.434;6.786;2023-02-01T10:39:54;15.03;;;5.77;;
36855;SDS011;22788;51.434;6.786;2023-02-01T10:42:21;20.57;;;6.20;;
36855;SDS011;22788;51.434;6.786;2023-02-01T10:44:51;19.03;;;5.97;;
36855;SDS011;22788;51.434;6.786;2023-02-01T10:47:18;25.07;;;6.47;;
36855;SDS011;22788;51.434;6.786;2023-02-01T10:49:47;22.20;;;5.47;;
36855;SDS011;22788;51.434;6.786;2023-02-01T10:52:20;20.30;;;6.23;;
36855;SDS011;22788;51.434;6.786;2023-02-01T10:54:56;14.00;;;5.30;;
36855;SDS011;22788;51.434;6.786;2023-02-01T10:57:48;16.50;;;6.30;;
36855;SDS011;22788;51.434;6.786;2023-02-01T11:00:21;20.30;;;5.67;;
36855;SDS011;22788;51.434;6.786;2023-02-01T11:02:47;18.87;;;5.83;;
36855;SDS011;22788;51.434;6.786;2023-02-01T11:05:14;16.17;;;5.67;;
36855;SDS011;22788;51.434;6.786;2023-02-01T11:07:45;16.00;;;5.07;;
36855;SDS011;22788;51.434;6.786;2023-02-01T11:13:02;18.00;;;6.63;;
36855;SDS011;22788;51.434;6.786;2023-02-01T11:15:29;16.97;;;7.23;;
36855;SDS011;22788;51.434;6.786;2023-02-01T11:17:55;17.53;;;5.50;;
36855;SDS011;22788;51.434;6.786;2023-02-01T11:20:26;19.77;;;5.07;;
36855;SDS011;22788;51.434;6.786;2023-02-01T11:23:04;17.00;;;6.10;;
36855;SDS011;22788;51.434;6.786;2023-02-01T11:25:31;16.37;;;6.00;;
36855;SDS011;22788;51.434;6.786;2023-02-01T11:28:01;15.17;;;5.77;;
36855;SDS011;22788;51.434;6.786;2023-02-01T11:30:31;17.70;;;5.97;;
36855;SDS011;22788;51.434;6.786;2023-02-01T11:33:00;18.53;;;5.73;;
36855;SDS011;22788;51.434;6.786;2023-02-01T11:35:26;17.87;;;5.00;;
36855;SDS011;22788;51.434;6.786;2023-02-01T11:37:55;21.73;;;5.13;;
36855;SDS011;22788;51.434;6.786;2023-02-01T11:40:27;20.30;;;5.77;;
36855;SDS011;22788;51.434;6.786;2023-02-01T11:42:56;16.13;;;6.20;;
36855;SDS011;22788;51.434;6.786;2023-02-01T11:45:26;26.90;;;6.43;;
36855;SDS011;22788;51.434;6.786;2023-02-01T11:47:54;14.67;;;5.30;;
36855;SDS011;22788;51.434;6.786;2023-02-01T11:50:24;18.90;;;6.20;;
36855;SDS011;22788;51.434;6.786;2023-02-01T11:53:03;17.97;;;5.60;;
36855;SDS011;22788;51.434;6.786;2023-02-01T11:55:58;15.00;;;5.93;;
36855;SDS011;22788;51.434;6.786;2023-02-01T11:58:41;21.47;;;6.30;;
36855;SDS011;22788;51.434;6.786;2023-02-01T12:01:22;18.03;;;5.80;;
36855;SDS011;22788;51.434;6.786;2023-02-01T12:04:18;18.13;;;5.90;;
36855;SDS011;22788;51.434;6.786;2023-02-01T12:07:04;11.30;;;5.00;;
36855;SDS011;22788;51.434;6.786;2023-02-01T12:09:45;13.20;;;5.90;;
36855;SDS011;22788;51.434;6.786;2023-02-01T12:12:22;24.70;;;5.10;;
36855;SDS011;22788;51.434;6.786;2023-02-01T12:14:55;23.67;;;5.80;;
36855;SDS011;22788;51.434;6.786;2023-02-01T12:17:35;15.73;;;4.97;;
36855;SDS011;22788;51.434;6.786;2023-02-01T12:20:21;28.87;;;5.70;;
36855;SDS011;22788;51.434;6.786;2023-02-01T12:23:03;16.17;;;4.97;;
36855;SDS011;22788;51.434;6.786;2023-02-01T12:25:43;12.77;;;5.13;;
36855;SDS011;22788;51.434;6.786;2023-02-01T12:28:26;19.20;;;4.67;;
36855;SDS011;22788;51.434;6.786;2023-02-01T12:31:20;16.73;;;4.87;;
36855;SDS011;22788;51.434;6.786;2023-02-01T12:34:02;20.27;;;4.93;;
36855;SDS011;22788;51.434;6.786;2023-02-01T12:36:45;18.60;;;4.43;;
36855;SDS011;22788;51.434;6.786;2023-02-01T12:39:19;15.47;;;3.63;;
36855;SDS011;22788;51.434;6.786;2023-02-01T12:41:51;11.10;;;3.90;;
36855;SDS011;22788;51.434;6.786;2023-02-01T12:44:28;14.63;;;4.27;;
36855;SDS011;22788;51.434;6.786;2023-02-01T12:47:00;10.20;;;3.57;;
36855;SDS011;22788;51.434;6.786;2023-02-01T12:49:34;15.10;;;3.47;;
36855;SDS011;22788;51.434;6.786;2023-02-01T12:52:10;7.53;;;3.37;;
36855;SDS011;22788;51.434;6.786;2023-02-01T12:54:41;14.63;;;3.63;;
36855;SDS011;22788;51.434;6.786;2023-02-01T12:57:13;10.90;;;3.33;;
36855;SDS011;22788;51.434;6.786;2023-02-01T12:59:46;13.53;;;3.80;;
36855;SDS011;22788;51.434;6.786;2023-02-01T13:02:16;13.80;;;3.70;;
36855;SDS011;22788;51.434;6.786;2023-02-01T13:04:51;16.93;;;3.90;;
36855;SDS011;22788;51.434;6.786;2023-02-01T13:07:24;12.83;;;3.60;;
36855;SDS011;22788;51.434;6.786;2023-02-01T13:09:55;15.70;;;3.70;;
36855;SDS011;22788;51.434;6.786;2023-02-01T13:12:28;14.13;;;3.80;;
36855;SDS011;22788;51.434;6.786;2023-02-01T13:15:02;12.53;;;3.47;;
36855;SDS011;22788;51.434;6.786;2023-02-01T13:17:35;13.33;;;3.37;;
36855;SDS011;22788;51.434;6.786;2023-02-01T13:20:02;11.67;;;2.80;;
36855;SDS011;22788;51.434;6.786;2023-02-01T13:22:39;13.60;;;3.77;;
36855;SDS011;22788;51.434;6.786;2023-02-01T13:25:10;8.17;;;3.00;;
36855;SDS011;22788;51.434;6.786;2023-02-01T13:27:38;15.03;;;3.30;;
36855;SDS011;22788;51.434;6.786;2023-02-01T13:30:07;8.83;;;3.20;;
36855;SDS011;22788;51.434;6.786;2023-02-01T13:32:46;11.37;;;3.03;;
36855;SDS011;22788;51.434;6.786;2023-02-01T13:35:35;11.40;;;3.80;;
36855;SDS011;22788;51.434;6.786;2023-02-01T13:38:32;14.00;;;3.17;;
36855;SDS011;22788;51.434;6.786;2023-02-01T13:41:23;9.83;;;3.27;;
36855;SDS011;22788;51.434;6.786;2023-02-01T13:43:53;8.20;;;3.37;;
36855;SDS011;22788;51.434;6.786;2023-02-01T13:46:22;14.23;;;4.27;;
36855;SDS011;22788;51.434;6.786;2023-02-01T13:48:49;16.83;;;3.30;;
36855;SDS011;22788;51.434;6.786;2023-02-01T13:51:17;11.33;;;3.70;;
36855;SDS011;22788;51.434;6.786;2023-02-01T13:53:58;13.87;;;3.97;;
36855;SDS011;22788;51.434;6.786;2023-02-01T13:56:24;13.83;;;3.77;;
36855;SDS011;22788;51.434;6.786;2023-02-01T13:58:51;11.53;;;3.47;;
36855;SDS011;22788;51.434;6.786;2023-02-01T14:07:17;16.47;;;4.13;;
36855;SDS011;22788;51.434;6.786;2023-02-01T14:09:44;16.63;;;3.20;;
36855;SDS011;22788;51.434;6.786;2023-02-01T14:15:17;18.97;;;3.63;;
36855;SDS011;22788;51.434;6.786;2023-02-01T14:17:47;8.43;;;2.87;;
36855;SDS011;22788;51.434;6.786;2023-02-01T14:26:02;13.80;;;3.47;;
36855;SDS011;22788;51.434;6.786;2023-02-01T14:28:34;12.73;;;3.40;;
36855;SDS011;22788;51.434;6.786;2023-02-01T14:31:13;10.20;;;3.17;;
36855;SDS011;22788;51.434;6.786;2023-02-01T14:33:44;11.50;;;3.73;;
36855;SDS011;22788;51.434;6.786;2023-02-01T14:36:11;13.30;;;3.50;;
36855;SDS011;22788;51.434;6.786;2023-02-01T14:38:39;8.63;;;3.80;;
36855;SDS011;22788;51.434;6.786;2023-02-01T14:41:21;13.90;;;4.03;;
36855;SDS011;22788;51.434;6.786;2023-02-01T14:49:36;9.30;;;3.33;;
36855;SDS011;22788;51.434;6.786;2023-02-01T14:52:14;12.70;;;3.67;;
36855;SDS011;22788;51.434;6.786;2023-02-01T14:54:44;14.00;;;3.93;;
36855;SDS011;22788;51.434;6.786;2023-02-01T14:57:15;13.80;;;3.43;;
36855;SDS011;22788;51.434;6.786;2023-02-01T14:59:44;13.93;;;3.70;;
36855;SDS011;22788;51.434;6.786;2023-02-01T15:02:17;12.23;;;3.57;;
36855;SDS011;22788;51.434;6.786;2023-02-01T15:04:47;9.53;;;3.47;;
36855;SDS011;22788;51.434;6.786;2023-02-01T15:07:19;14.53;;;3.30;;
36855;SDS011;22788;51.434;6.786;2023-02-01T15:09:47;17.77;;;3.40;;
36855;SDS011;22788;51.434;6.786;2023-02-01T15:12:15;11.27;;;3.43;;
36855;SDS011;22788;51.434;6.786;2023-02-01T15:14:43;7.07;;;3.30;;
36855;SDS011;22788;51.434;6.786;2023-02-01T15:17:18;12.27;;;3.10;;
36855;SDS011;22788;51.434;6.786;2023-02-01T15:19:53;11.37;;;3.47;;
36855;SDS011;22788;51.434;6.786;2023-02-01T15:22:20;12.07;;;3.27;;
36855;SDS011;22788;51.434;6.786;2023-02-01T15:24:51;17.40;;;3.50;;
36855;SDS011;22788;51.434;6.786;2023-02-01T15:27:18;11.10;;;3.60;;
36855;SDS011;22788;51.434;6.786;2023-02-01T15:29:44;15.57;;;3.70;;